Time;durP1;ratioP1;P1;durP2;ratioP2;P2;SDS_P1;SDS_P2;PMS_P1;PMS_P2;Temp;Humidity;BMP_temperature;BMP_pressure;BME280_temperature;BME280_humidity;BME280_pressure;Samples;Min_cycle;Max_cycle;Signal;HPM_P1;HPM_P2
2022/01/05 00:01:00;;;;;;;0.20;0.20;;;2.00;99.90;;;;;;2114454;27;20203;-67
2022/01/05 00:02:01;;;;;;;0.10;0.10;;;2.00;99.90;;;;;;2114289;28;20199;-66
2022/01/05 00:03:04;;;;;;;0.30;0.30;;;2.10;99.90;;;;;;2114397;28;20180;-67
2022/01/05 00:04:05;;;;;;;0.32;0.20;;;2.10;99.90;;;;;;2113954;28;20551;-68
2022/01/05 00:05:07;;;;;;;0.40;0.40;;;2.10;99.90;;;;;;2114251;28;20211;-66
2022/01/05 00:06:07;;;;;;;0.40;0.35;;;2.10;99.90;;;;;;2113648;28;20425;-67
2022/01/05 00:07:08;;;;;;;0.30;0.30;;;2.10;99.90;;;;;;2121623;27;20235;-65
2022/01/05 00:08:08;;;;;;;0.50;0.50;;;2.00;99.90;;;;;;2118491;27;20201;-66
2022/01/05 00:09:09;;;;;;;0.77;0.40;;;2.00;99.90;;;;;;2114244;28;20186;-66
2022/01/05 00:10:10;;;;;;;0.30;0.30;;;2.00;99.90;;;;;;2114305;28;20511;-66
2022/01/05 00:11:12;;;;;;;0.20;0.20;;;2.10;99.90;;;;;;2114305;28;20733;-66
2022/01/05 00:12:12;;;;;;;0.10;0.10;;;2.10;99.90;;;;;;2113996;28;20271;-65
2022/01/05 00:13:13;;;;;;;0.27;0.27;;;2.00;99.90;;;;;;2114251;28;20171;-66
2022/01/05 00:14:14;;;;;;;0.20;0.20;;;2.00;99.90;;;;;;2113956;28;20176;-66
2022/01/05 00:15:16;;;;;;;0.40;0.40;;;2.00;99.90;;;;;;2114070;28;20246;-66
2022/01/05 00:16:16;;;;;;;0.30;0.30;;;1.90;99.90;;;;;;2113852;28;20610;-65
2022/01/05 00:17:18;;;;;;;0.23;0.23;;;1.90;99.90;;;;;;2114060;28;20395;-66
2022/01/05 00:18:18;;;;;;;0.10;0.10;;;1.90;99.90;;;;;;2118339;27;20207;-65
2022/01/05 00:19:19;;;;;;;0.10;0.10;;;1.90;99.90;;;;;;2113486;28;20181;-67
2022/01/05 00:20:20;;;;;;;0.17;0.17;;;1.90;99.90;;;;;;2113849;28;20226;-67
2022/01/05 00:21:20;;;;;;;0.10;0.10;;;1.90;99.90;;;;;;2114020;28;20208;-66
2022/01/05 00:22:21;;;;;;;0.30;0.20;;;1.90;99.90;;;;;;2114142;28;20180;-66
2022/01/05 00:23:22;;;;;;;0.20;0.20;;;1.90;99.90;;;;;;2114172;28;20172;-74
2022/01/05 00:24:22;;;;;;;0.40;0.30;;;2.00;99.90;;;;;;2113326;28;20242;-66
2022/01/05 00:25:23;;;;;;;0.20;0.20;;;2.00;99.90;;;;;;2113438;28;20180;-66
2022/01/05 00:26:25;;;;;;;0.10;0.10;;;1.90;99.90;;;;;;2114118;28;20204;-66
2022/01/05 00:27:26;;;;;;;0.30;0.30;;;1.90;99.90;;;;;;2114069;28;20189;-66
2022/01/05 00:28:26;;;;;;;0.10;0.10;;;1.90;99.90;;;;;;2114196;28;20244;-68
2022/01/05 00:29:27;;;;;;;1.30;0.30;;;1.80;99.90;;;;;;2114893;28;20180;-70
2022/01/05 00:30:27;;;;;;;0.20;0.20;;;1.80;99.90;;;;;;2113850;28;20751;-67
2022/01/05 00:31:29;;;;;;;0.17;0.17;;;1.80;99.90;;;;;;2113949;28;20803;-66
2022/01/05 00:32:29;;;;;;;0.20;0.20;;;1.80;99.90;;;;;;2114797;28;20203;-71
2022/01/05 00:33:30;;;;;;;0.20;0.20;;;1.80;99.90;;;;;;2114728;28;20201;-65
2022/01/05 00:34:31;;;;;;;0.57;0.20;;;1.80;99.90;;;;;;2114521;28;20204;-65
2022/01/05 00:35:31;;;;;;;0.20;0.10;;;1.90;99.90;;;;;;2114488;28;20721;-65
2022/01/05 00:36:32;;;;;;;0.27;0.20;;;1.90;99.90;;;;;;2114638;28;20183;-67
2022/01/05 00:37:33;;;;;;;0.20;0.20;;;2.00;99.90;;;;;;2114678;28;20598;-66
2022/01/05 00:38:34;;;;;;;0.10;0.10;;;2.00;99.90;;;;;;2114953;28;20189;-69
2022/01/05 00:39:35;;;;;;;0.22;0.22;;;2.00;99.90;;;;;;2114596;28;20243;-64
2022/01/05 00:40:36;;;;;;;0.20;0.20;;;2.00;99.90;;;;;;2114861;28;20183;-66
2022/01/05 00:41:37;;;;;;;0.43;0.27;;;2.00;99.90;;;;;;2114063;28;20186;-67
2022/01/05 00:42:37;;;;;;;0.30;0.30;;;2.00;99.90;;;;;;2115539;28;20186;-66
2022/01/05 00:43:38;;;;;;;0.20;0.20;;;2.00;99.90;;;;;;2116324;28;20211;-69
2022/01/05 00:44:39;;;;;;;0.15;0.15;;;2.00;99.90;;;;;;2115519;28;20183;-66
2022/01/05 00:45:41;;;;;;;0.10;0.10;;;2.00;99.90;;;;;;2115754;28;20595;-66
2022/01/05 00:46:42;;;;;;;0.28;0.28;;;2.00;99.90;;;;;;2116245;28;20176;-66
2022/01/05 00:47:43;;;;;;;0.30;0.20;;;2.00;99.90;;;;;;2116392;28;20210;-68
2022/01/05 00:48:43;;;;;;;0.30;0.30;;;2.00;99.90;;;;;;2116562;28;20182;-67
2022/01/05 00:49:44;;;;;;;0.30;0.30;;;2.10;99.90;;;;;;2116382;28;20180;-66
2022/01/05 00:50:45;;;;;;;0.67;0.40;;;2.10;99.90;;;;;;2115797;28;20193;-74
2022/01/05 00:51:46;;;;;;;1.33;0.30;;;2.10;99.90;;;;;;2107105;28;20202;-66
2022/01/05 00:52:46;;;;;;;0.25;0.25;;;2.10;99.90;;;;;;2115834;28;20612;-65
2022/01/05 00:53:47;;;;;;;0.20;0.20;;;2.00;99.90;;;;;;2116158;28;20202;-65
2022/01/05 00:54:48;;;;;;;0.27;0.27;;;2.10;99.90;;;;;;2116125;28;20188;-66
2022/01/05 00:55:48;;;;;;;0.50;0.30;;;2.10;99.90;;;;;;2116202;27;20180;-67
2022/01/05 00:56:49;;;;;;;0.20;0.20;;;2.10;99.90;;;;;;2116343;28;20662;-67
2022/01/05 00:57:52;;;;;;;0.20;0.20;;;2.10;99.90;;;;;;2116349;28;20669;-66
2022/01/05 00:58:52;;;;;;;0.20;0.20;;;2.10;99.90;;;;;;2116332;28;20654;-64
2022/01/05 00:59:53;;;;;;;0.20;0.20;;;2.00;99.90;;;;;;2116350;28;20220;-67
2022/01/05 01:00:54;;;;;;;0.20;0.20;;;2.00;99.90;;;;;;2116590;28;20168;-64
2022/01/05 01:01:54;;;;;;;0.30;0.30;;;2.00;99.90;;;;;;2116291;28;20198;-65
2022/01/05 01:02:55;;;;;;;0.10;0.10;;;2.00;99.90;;;;;;2116116;28;20175;-67
2022/01/05 01:03:56;;;;;;;0.20;0.20;;;1.90;99.90;;;;;;2116142;28;20185;-67
2022/01/05 01:04:56;;;;;;;0.23;0.20;;;1.90;99.90;;;;;;2115499;28;20172;-67
2022/01/05 01:06:01;;;;;;;0.20;0.20;;;1.90;99.90;;;;;;2107090;28;20666;-67
2022/01/05 01:07:02;;;;;;;1.15;0.30;;;1.80;99.90;;;;;;2110978;28;20190;-67
2022/01/05 01:08:03;;;;;;;0.20;0.20;;;1.80;99.90;;;;;;2111752;28;20265;-67
2022/01/05 01:09:03;;;;;;;0.10;0.10;;;1.80;99.90;;;;;;2113020;28;20236;-66
2022/01/05 01:10:05;;;;;;;0.20;0.17;;;1.80;99.90;;;;;;2116344;28;20270;-67
2022/01/05 01:11:06;;;;;;;0.30;0.30;;;1.80;99.90;;;;;;2115979;28;20179;-67
2022/01/05 01:12:07;;;;;;;0.20;0.20;;;1.70;99.90;;;;;;2116209;28;20259;-67
2022/01/05 01:13:08;;;;;;;0.30;0.30;;;1.80;99.90;;;;;;2115462;28;20176;-68
2022/01/05 01:14:10;;;;;;;0.33;0.30;;;1.80;99.90;;;;;;2115467;28;20176;-69
2022/01/05 01:15:11;;;;;;;0.22;0.22;;;1.80;99.90;;;;;;2114654;28;20203;-68
2022/01/05 01:16:12;;;;;;;0.20;0.20;;;1.80;99.90;;;;;;2114803;28;20175;-68
2022/01/05 01:17:13;;;;;;;0.20;0.20;;;1.80;99.90;;;;;;2115123;28;20555;-67
2022/01/05 01:18:14;;;;;;;0.10;0.10;;;1.80;99.90;;;;;;2115474;28;20179;-67
2022/01/05 01:19:15;;;;;;;0.40;0.32;;;1.80;99.90;;;;;;2116201;28;20171;-67
2022/01/05 01:20:16;;;;;;;0.20;0.20;;;1.80;99.90;;;;;;2115842;28;20229;-68
2022/01/05 01:21:16;;;;;;;0.20;0.20;;;1.80;99.90;;;;;;2115744;28;20234;-68
2022/01/05 01:22:17;;;;;;;0.33;0.30;;;1.80;99.90;;;;;;2115643;28;20194;-68
2022/01/05 01:23:21;;;;;;;0.33;0.30;;;1.90;99.90;;;;;;2115599;28;20190;-69
2022/01/05 01:24:22;;;;;;;0.20;0.20;;;1.90;99.90;;;;;;2116059;28;20177;-68
2022/01/05 01:25:22;;;;;;;0.20;0.20;;;1.90;99.90;;;;;;2115986;28;20237;-67
2022/01/05 01:26:27;;;;;;;0.37;0.37;;;1.90;99.90;;;;;;2116214;28;20229;-68
2022/01/05 01:27:28;;;;;;;0.30;0.30;;;1.90;99.90;;;;;;2115442;28;20187;-67
2022/01/05 01:28:28;;;;;;;0.20;0.20;;;1.90;99.90;;;;;;2115497;28;20544;-68
2022/01/05 01:29:29;;;;;;;0.23;0.23;;;1.90;99.90;;;;;;2115956;28;20185;-68
2022/01/05 01:30:31;;;;;;;0.20;0.20;;;1.90;99.90;;;;;;2116084;28;20185;-67
2022/01/05 01:31:32;;;;;;;0.15;0.15;;;1.90;99.90;;;;;;2106860;28;20625;-67
2022/01/05 01:32:33;;;;;;;0.23;0.20;;;1.90;99.90;;;;;;2107269;28;20184;-67
2022/01/05 01:33:33;;;;;;;0.30;0.20;;;1.90;99.90;;;;;;2116053;28;20662;-67
2022/01/05 01:34:34;;;;;;;0.20;0.20;;;1.90;99.90;;;;;;2115944;28;20188;-68
2022/01/05 01:35:35;;;;;;;0.20;0.20;;;1.90;99.90;;;;;;2115903;28;20256;-67
2022/01/05 01:36:36;;;;;;;0.20;0.20;;;1.90;99.90;;;;;;2116056;28;20181;-66
2022/01/05 01:37:37;;;;;;;0.30;0.30;;;1.90;99.90;;;;;;2116032;28;20180;-68
2022/01/05 01:38:38;;;;;;;1.85;0.30;;;1.90;99.90;;;;;;2116063;28;20186;-67
2022/01/05 01:39:38;;;;;;;1.80;0.20;;;1.90;99.90;;;;;;2115820;28;20184;-67
2022/01/05 01:40:39;;;;;;;0.40;0.40;;;1.90;99.90;;;;;;2116054;28;20423;-66
2022/01/05 01:41:40;;;;;;;0.40;0.40;;;2.00;99.90;;;;;;2115883;28;20197;-66
2022/01/05 01:42:41;;;;;;;0.50;0.50;;;2.00;99.90;;;;;;2116021;28;20206;-66
2022/01/05 01:43:41;;;;;;;0.57;0.50;;;2.00;99.90;;;;;;2115992;28;20206;-66
2022/01/05 01:44:43;;;;;;;0.30;0.30;;;2.00;99.90;;;;;;2115759;28;20198;-66
2022/01/05 01:45:44;;;;;;;0.22;0.22;;;2.00;99.90;;;;;;2115873;28;20654;-66
2022/01/05 01:46:44;;;;;;;0.50;0.37;;;2.00;99.90;;;;;;2116068;28;20189;-67
2022/01/05 01:47:46;;;;;;;0.20;0.20;;;2.00;99.90;;;;;;2116010;28;20183;-66
2022/01/05 01:48:46;;;;;;;0.30;0.30;;;2.00;99.90;;;;;;2115999;28;20195;-66
2022/01/05 01:49:47;;;;;;;0.30;0.30;;;2.00;99.90;;;;;;2116052;28;20188;-65
2022/01/05 01:50:48;;;;;;;0.30;0.30;;;2.00;99.90;;;;;;2116229;28;20238;-66
2022/01/05 01:51:48;;;;;;;0.60;0.20;;;1.90;99.90;;;;;;2115858;28;20366;-65
2022/01/05 01:52:49;;;;;;;0.30;0.30;;;1.90;99.90;;;;;;2115999;28;20182;-65
2022/01/05 01:53:50;;;;;;;0.17;0.17;;;1.90;99.90;;;;;;2115319;28;20234;-65
2022/01/05 01:54:52;;;;;;;0.30;0.30;;;1.90;99.90;;;;;;2114335;28;20271;-66
2022/01/05 01:55:54;;;;;;;0.17;0.17;;;1.90;99.90;;;;;;2115075;28;20174;-66
2022/01/05 01:56:55;;;;;;;0.20;0.20;;;1.80;99.90;;;;;;2107059;28;20184;-66
2022/01/05 01:57:56;;;;;;;0.20;0.20;;;1.80;99.90;;;;;;2115359;28;20203;-68
2022/01/05 01:58:57;;;;;;;0.43;0.40;;;1.80;99.90;;;;;;2115852;28;20183;-69
2022/01/05 01:59:58;;;;;;;2.57;0.80;;;1.80;99.90;;;;;;2115897;28;20223;-66
2022/01/05 02:00:58;;;;;;;3.70;1.83;;;1.80;99.90;;;;;;2115732;28;20546;-67
2022/01/05 02:01:59;;;;;;;3.43;1.63;;;1.80;99.90;;;;;;2115820;28;20268;-68
2022/01/05 02:03:00;;;;;;;1.77;1.17;;;1.80;99.90;;;;;;2115691;28;20317;-67
2022/01/05 02:04:01;;;;;;;1.17;0.90;;;1.80;99.90;;;;;;2115867;28;20474;-68
2022/01/05 02:05:03;;;;;;;0.63;0.40;;;1.80;99.90;;;;;;2115582;28;20180;-68
2022/01/05 02:06:04;;;;;;;0.40;0.40;;;1.80;99.90;;;;;;2115820;28;20179;-68
2022/01/05 02:07:04;;;;;;;0.50;0.40;;;1.80;99.90;;;;;;2115502;28;20203;-68
2022/01/05 02:08:05;;;;;;;0.10;0.10;;;1.80;99.90;;;;;;2115099;28;20180;-68
2022/01/05 02:09:06;;;;;;;0.30;0.30;;;1.80;99.90;;;;;;2115050;28;20205;-68
2022/01/05 02:10:09;;;;;;;0.20;0.20;;;1.80;99.90;;;;;;2115652;28;20647;-68
2022/01/05 02:11:12;;;;;;;0.10;0.10;;;1.70;99.90;;;;;;2115513;28;20201;-68
2022/01/05 02:12:12;;;;;;;0.20;0.20;;;1.70;99.90;;;;;;2115574;28;20186;-68
2022/01/05 02:13:13;;;;;;;0.53;0.30;;;1.70;99.90;;;;;;2115481;28;20669;-66
2022/01/05 02:14:14;;;;;;;0.30;0.30;;;1.70;99.90;;;;;;2113806;28;20195;-68
2022/01/05 02:15:14;;;;;;;0.30;0.30;;;1.70;99.90;;;;;;2107473;28;20273;-69
2022/01/05 02:16:29;;;;;;;0.20;0.10;;;1.70;99.90;;;;;;2107146;28;20217;-66
2022/01/05 02:17:44;;;;;;;0.22;0.22;;;1.60;99.90;;;;;;2106917;28;20641;-66
2022/01/05 02:18:59;;;;;;;1.27;0.30;;;1.60;99.90;;;;;;2107106;28;20661;-69
2022/01/05 02:20:00;;;;;;;0.28;0.28;;;1.50;99.90;;;;;;2107063;28;20151;-69
2022/01/05 02:21:09;;;;;;;0.80;0.30;;;1.50;99.90;;;;;;2106347;28;20183;-69
2022/01/05 02:22:10;;;;;;;0.30;0.30;;;1.40;99.90;;;;;;2106590;28;20593;-69
2022/01/05 02:23:10;;;;;;;0.30;0.30;;;1.40;99.90;;;;;;2106482;28;20211;-69
2022/01/05 02:24:11;;;;;;;0.30;0.30;;;1.40;99.90;;;;;;2107118;28;20642;-69
2022/01/05 02:25:13;;;;;;;1.83;0.30;;;1.40;99.90;;;;;;2097819;28;20584;-69
2022/01/05 02:26:14;;;;;;;0.50;0.32;;;1.40;99.90;;;;;;2098297;28;20575;-69
2022/01/05 02:27:15;;;;;;;0.30;0.30;;;1.40;99.90;;;;;;2114834;28;20179;-69
2022/01/05 02:28:16;;;;;;;0.17;0.17;;;1.40;99.90;;;;;;2106406;28;20171;-69
2022/01/05 02:29:16;;;;;;;0.30;0.20;;;1.40;99.90;;;;;;2106544;28;20183;-67
2022/01/05 02:30:27;;;;;;;0.50;0.33;;;1.40;99.90;;;;;;2107007;28;20179;-69
2022/01/05 02:31:27;;;;;;;0.38;0.38;;;1.40;99.90;;;;;;2106366;28;20751;-68
2022/01/05 02:32:28;;;;;;;0.30;0.30;;;1.40;99.90;;;;;;2106529;28;20190;-68
2022/01/05 02:33:29;;;;;;;0.20;0.20;;;1.40;99.90;;;;;;2106863;28;20183;-69
2022/01/05 02:34:29;;;;;;;0.83;0.20;;;1.40;99.90;;;;;;2106872;28;20199;-68
2022/01/05 02:35:30;;;;;;;1.03;0.40;;;1.40;99.90;;;;;;2106958;28;20212;-67
2022/01/05 02:36:32;;;;;;;0.20;0.20;;;1.40;99.90;;;;;;2107255;28;20187;-69
2022/01/05 02:37:44;;;;;;;0.32;0.30;;;1.40;99.90;;;;;;2106390;28;20179;-69
2022/01/05 02:38:51;;;;;;;0.20;0.20;;;1.50;99.90;;;;;;2106376;28;20161;-69
2022/01/05 02:39:51;;;;;;;1.85;0.30;;;1.40;99.90;;;;;;2106456;28;20159;-69
2022/01/05 02:40:52;;;;;;;0.27;0.27;;;1.40;99.90;;;;;;2106415;28;20188;-69
2022/01/05 02:41:53;;;;;;;0.30;0.30;;;1.40;99.90;;;;;;2106232;28;20701;-69
2022/01/05 02:42:56;;;;;;;0.93;0.20;;;1.40;99.90;;;;;;2106903;28;20183;-69
2022/01/05 02:43:57;;;;;;;0.22;0.22;;;1.40;99.90;;;;;;2106773;28;20171;-69
2022/01/05 02:44:58;;;;;;;0.30;0.30;;;1.40;99.90;;;;;;2106786;28;20184;-69
2022/01/05 02:45:58;;;;;;;0.37;0.30;;;1.40;99.90;;;;;;2106240;28;20180;-69
2022/01/05 02:47:00;;;;;;;0.20;0.20;;;1.40;99.90;;;;;;2097885;28;20168;-68
2022/01/05 02:48:03;;;;;;;0.20;0.20;;;1.40;99.90;;;;;;2106334;28;20182;-65
2022/01/05 02:49:04;;;;;;;0.30;0.28;;;1.40;99.90;;;;;;2106195;28;20183;-67
2022/01/05 02:50:08;;;;;;;0.13;0.10;;;1.40;99.90;;;;;;2106816;28;20182;-67
2022/01/05 02:51:11;;;;;;;0.20;0.20;;;1.40;99.90;;;;;;2106782;28;20181;-68
2022/01/05 02:52:12;;;;;;;0.20;0.20;;;1.30;99.90;;;;;;2106360;28;20172;-66
2022/01/05 02:53:12;;;;;;;0.20;0.20;;;1.30;99.90;;;;;;2106235;28;20175;-66
2022/01/05 02:54:13;;;;;;;0.33;0.33;;;1.30;99.90;;;;;;2106867;28;20179;-64
2022/01/05 02:55:13;;;;;;;0.30;0.30;;;1.30;99.90;;;;;;2106527;28;20209;-66
2022/01/05 02:56:14;;;;;;;0.20;0.20;;;1.30;99.90;;;;;;2106840;28;20167;-66
2022/01/05 02:57:15;;;;;;;1.93;0.37;;;1.30;99.90;;;;;;2106147;28;20184;-65
2022/01/05 02:58:16;;;;;;;0.20;0.20;;;1.30;99.90;;;;;;2106325;28;20417;-65
2022/01/05 02:59:17;;;;;;;0.52;0.25;;;1.30;99.90;;;;;;2106814;28;20207;-67
2022/01/05 03:00:18;;;;;;;0.20;0.20;;;1.40;99.90;;;;;;2106915;28;20654;-66
2022/01/05 03:01:18;;;;;;;0.20;0.20;;;1.40;99.90;;;;;;2106730;28;20992;-66
2022/01/05 03:02:19;;;;;;;0.20;0.20;;;1.40;99.90;;;;;;2106840;28;20250;-66
2022/01/05 03:03:20;;;;;;;0.20;0.20;;;1.40;99.90;;;;;;2106616;28;20175;-66
2022/01/05 03:04:21;;;;;;;0.23;0.20;;;1.50;99.90;;;;;;2106796;28;20217;-66
2022/01/05 03:05:21;;;;;;;0.20;0.20;;;1.50;99.90;;;;;;2106487;28;20304;-65
2022/01/05 03:06:22;;;;;;;0.30;0.30;;;1.50;99.90;;;;;;2106878;28;20196;-67
2022/01/05 03:07:23;;;;;;;0.20;0.10;;;1.50;99.90;;;;;;2106652;28;20688;-67
2022/01/05 03:08:23;;;;;;;1.23;0.20;;;1.50;99.90;;;;;;2106754;28;20205;-66
2022/01/05 03:09:24;;;;;;;0.20;0.20;;;1.60;99.90;;;;;;2106632;28;20182;-67
2022/01/05 03:10:25;;;;;;;0.20;0.20;;;1.60;99.90;;;;;;2106791;28;20244;-67
2022/01/05 03:11:25;;;;;;;0.20;0.20;;;1.60;99.90;;;;;;2105444;28;20689;-66
2022/01/05 03:12:26;;;;;;;0.40;0.40;;;1.60;99.90;;;;;;2106282;28;20198;-67
2022/01/05 03:13:27;;;;;;;0.20;0.20;;;1.70;99.90;;;;;;2106816;28;20173;-67
2022/01/05 03:14:28;;;;;;;0.20;0.20;;;1.60;99.90;;;;;;2106732;28;20189;-67
2022/01/05 03:15:29;;;;;;;0.20;0.20;;;1.60;99.90;;;;;;2109981;28;20697;-67
2022/01/05 03:16:29;;;;;;;0.20;0.20;;;1.60;99.90;;;;;;2114025;28;20186;-67
2022/01/05 03:17:30;;;;;;;0.30;0.20;;;1.70;99.90;;;;;;2113620;28;20170;-65
2022/01/05 03:18:31;;;;;;;0.30;0.13;;;1.60;99.90;;;;;;2114352;28;20164;-66
2022/01/05 03:19:32;;;;;;;0.10;0.10;;;1.70;99.90;;;;;;2114428;28;20179;-65
2022/01/05 03:20:34;;;;;;;0.10;0.10;;;1.60;99.90;;;;;;2114564;28;20228;-65
2022/01/05 03:21:35;;;;;;;0.40;0.20;;;1.60;99.90;;;;;;2114255;28;20231;-66
2022/01/05 03:22:36;;;;;;;0.20;0.20;;;1.60;99.90;;;;;;2114566;28;20186;-67
2022/01/05 03:23:36;;;;;;;0.30;0.20;;;1.60;99.90;;;;;;2114334;28;20184;-66
2022/01/05 03:24:37;;;;;;;0.10;0.10;;;1.60;99.90;;;;;;2114294;28;20179;-66
2022/01/05 03:25:39;;;;;;;0.10;0.10;;;1.60;99.90;;;;;;2114276;28;20229;-66
2022/01/05 03:26:39;;;;;;;0.57;0.30;;;1.60;99.90;;;;;;2114225;28;20182;-63
2022/01/05 03:27:40;;;;;;;0.20;0.20;;;1.60;99.90;;;;;;2114315;28;20710;-65
2022/01/05 03:28:41;;;;;;;0.20;0.10;;;1.60;99.90;;;;;;2114517;28;20583;-65
2022/01/05 03:29:41;;;;;;;0.10;0.10;;;1.50;99.90;;;;;;2114505;28;20201;-69
2022/01/05 03:30:42;;;;;;;1.33;0.10;;;1.60;99.90;;;;;;2113666;28;20209;-65
2022/01/05 03:31:43;;;;;;;0.20;0.20;;;1.60;99.90;;;;;;2113727;28;20210;-66
2022/01/05 03:33:09;;;;;;;0.47;0.30;;;1.60;99.90;;;;;;2114063;28;20261;-65
2022/01/05 03:34:09;;;;;;;0.10;0.10;;;1.60;99.90;;;;;;2114804;28;20280;-65
2022/01/05 03:35:09;;;;;;;0.15;0.10;;;1.60;99.90;;;;;;2114809;28;20172;-65
2022/01/05 03:36:10;;;;;;;0.10;0.10;;;1.60;99.90;;;;;;2115077;28;20172;-67
2022/01/05 03:37:11;;;;;;;0.10;0.10;;;1.60;99.90;;;;;;2115066;28;20179;-68
2022/01/05 03:38:15;;;;;;;0.40;0.20;;;1.60;99.90;;;;;;2115005;28;20186;-68
2022/01/05 03:39:16;;;;;;;0.13;0.13;;;1.60;99.90;;;;;;2114497;28;20663;-68
2022/01/05 03:40:17;;;;;;;0.20;0.20;;;1.60;99.90;;;;;;2114517;28;20253;-67
2022/01/05 03:41:17;;;;;;;0.37;0.30;;;1.60;99.90;;;;;;2114991;28;20190;-67
2022/01/05 03:42:18;;;;;;;0.20;0.20;;;1.50;99.90;;;;;;2115043;28;20173;-68
2022/01/05 03:43:19;;;;;;;0.13;0.13;;;1.50;99.90;;;;;;2114886;28;20224;-67
2022/01/05 03:44:19;;;;;;;0.77;0.20;;;1.50;99.90;;;;;;2115028;28;20170;-67
2022/01/05 03:45:20;;;;;;;0.20;0.20;;;1.50;99.90;;;;;;2114901;28;20565;-68
2022/01/05 03:46:21;;;;;;;0.17;0.10;;;1.50;99.90;;;;;;2114999;28;20182;-66
2022/01/05 03:47:21;;;;;;;0.10;0.10;;;1.50;99.90;;;;;;2114630;28;20286;-67
2022/01/05 03:48:23;;;;;;;0.13;0.10;;;1.50;99.90;;;;;;2114803;28;20182;-66
2022/01/05 03:49:24;;;;;;;0.30;0.30;;;1.50;99.90;;;;;;2114670;28;20176;-66
2022/01/05 03:50:25;;;;;;;0.37;0.30;;;1.60;99.90;;;;;;2114862;28;20357;-66
2022/01/05 03:51:25;;;;;;;0.20;0.20;;;1.60;99.90;;;;;;2114861;28;20190;-67
2022/01/05 03:52:26;;;;;;;0.47;0.20;;;1.60;99.90;;;;;;2114255;28;20549;-66
2022/01/05 03:53:27;;;;;;;0.10;0.10;;;1.60;99.90;;;;;;2114106;28;20420;-66
2022/01/05 03:54:28;;;;;;;0.20;0.20;;;1.60;99.90;;;;;;2114183;28;20175;-66
2022/01/05 03:55:28;;;;;;;0.33;0.30;;;1.60;99.90;;;;;;2105489;28;20199;-67
2022/01/05 03:56:29;;;;;;;0.43;0.20;;;1.60;99.90;;;;;;2114154;28;20185;-66
2022/01/05 03:57:30;;;;;;;0.10;0.10;;;1.60;99.90;;;;;;2114035;28;20174;-67
2022/01/05 03:58:30;;;;;;;0.20;0.20;;;1.60;99.90;;;;;;2114103;28;20679;-66
2022/01/05 03:59:31;;;;;;;0.20;0.20;;;1.60;99.90;;;;;;2113664;28;20177;-66
2022/01/05 04:00:36;;;;;;;0.40;0.40;;;1.60;99.90;;;;;;2114787;28;20176;-67
2022/01/05 04:01:37;;;;;;;0.10;0.10;;;1.60;99.90;;;;;;2114474;28;20195;-67
2022/01/05 04:02:37;;;;;;;0.30;0.20;;;1.50;99.90;;;;;;2114622;28;20178;-67
2022/01/05 04:03:38;;;;;;;0.40;0.20;;;1.50;99.90;;;;;;2114567;28;20175;-66
2022/01/05 04:04:39;;;;;;;0.97;0.20;;;1.50;99.90;;;;;;2114756;28;20182;-67
2022/01/05 04:05:40;;;;;;;0.23;0.23;;;1.50;99.90;;;;;;2114814;28;20711;-66
2022/01/05 04:06:41;;;;;;;0.57;0.30;;;1.50;99.90;;;;;;2114958;28;20267;-66
2022/01/05 04:07:42;;;;;;;0.20;0.17;;;1.50;99.90;;;;;;2114789;28;20186;-66
2022/01/05 04:08:43;;;;;;;0.10;0.10;;;1.50;99.90;;;;;;2114883;28;20183;-67
2022/01/05 04:09:44;;;;;;;0.17;0.17;;;1.60;99.90;;;;;;2114812;28;20190;-67
2022/01/05 04:10:44;;;;;;;0.20;0.20;;;1.60;99.90;;;;;;2114898;28;20253;-67
2022/01/05 04:11:45;;;;;;;0.20;0.20;;;1.60;99.90;;;;;;2114748;28;20686;-67
2022/01/05 04:12:47;;;;;;;0.30;0.30;;;1.60;99.90;;;;;;2114399;28;20179;-65
2022/01/05 04:13:48;;;;;;;0.20;0.20;;;1.60;99.90;;;;;;2114471;28;20195;-67
2022/01/05 04:14:48;;;;;;;0.50;0.20;;;1.60;99.90;;;;;;2114585;28;20680;-66
2022/01/05 04:15:49;;;;;;;0.30;0.30;;;1.70;99.90;;;;;;2114567;28;20847;-66
2022/01/05 04:16:50;;;;;;;3.43;0.47;;;1.70;99.90;;;;;;2114439;28;20645;-67
2022/01/05 04:17:50;;;;;;;0.20;0.20;;;1.70;99.90;;;;;;2114414;28;20258;-67
2022/01/05 04:18:51;;;;;;;0.30;0.27;;;1.70;99.90;;;;;;2114757;28;20258;-68
2022/01/05 04:19:52;;;;;;;0.20;0.20;;;1.70;99.90;;;;;;2113418;28;20180;-68
2022/01/05 04:20:53;;;;;;;0.30;0.30;;;1.70;99.90;;;;;;2108559;28;20177;-67
2022/01/05 04:21:53;;;;;;;0.20;0.20;;;1.70;99.90;;;;;;2106173;28;20685;-67
2022/01/05 04:22:54;;;;;;;0.30;0.30;;;1.70;99.90;;;;;;2105823;28;20226;-67
2022/01/05 04:23:55;;;;;;;0.30;0.30;;;1.70;99.90;;;;;;2105765;28;20206;-67
2022/01/05 04:24:55;;;;;;;0.30;0.30;;;1.70;99.90;;;;;;2106292;28;20178;-67
2022/01/05 04:25:56;;;;;;;0.40;0.40;;;1.70;99.90;;;;;;2106295;28;20194;-67
2022/01/05 04:26:57;;;;;;;0.30;0.30;;;1.70;99.90;;;;;;2106186;28;20205;-67
2022/01/05 04:27:57;;;;;;;0.30;0.30;;;1.80;99.90;;;;;;2106376;28;20179;-67
2022/01/05 04:28:58;;;;;;;0.40;0.40;;;1.80;99.90;;;;;;2106263;28;20178;-67
2022/01/05 04:29:59;;;;;;;0.50;0.50;;;1.80;99.90;;;;;;2106266;28;20183;-67
2022/01/05 04:31:00;;;;;;;1.17;0.60;;;1.90;99.90;;;;;;2105999;28;20826;-67
2022/01/05 04:32:00;;;;;;;0.40;0.40;;;1.90;99.90;;;;;;2106255;28;20413;-66
2022/01/05 04:33:01;;;;;;;0.40;0.40;;;1.90;99.90;;;;;;2106316;28;20180;-66
2022/01/05 04:34:02;;;;;;;0.60;0.60;;;1.90;99.90;;;;;;2106231;28;20195;-67
2022/01/05 04:35:03;;;;;;;0.70;0.50;;;1.90;99.90;;;;;;2105985;28;20191;-65
2022/01/05 04:36:04;;;;;;;0.50;0.50;;;2.00;99.90;;;;;;2105761;28;20180;-66
2022/01/05 04:37:07;;;;;;;0.52;0.52;;;2.00;99.90;;;;;;2105929;28;20198;-67
2022/01/05 04:38:07;;;;;;;0.50;0.50;;;2.00;99.90;;;;;;2106424;28;20181;-67
2022/01/05 04:39:08;;;;;;;0.50;0.33;;;2.10;99.90;;;;;;2106290;28;20548;-66
2022/01/05 04:40:11;;;;;;;0.83;0.50;;;2.10;99.90;;;;;;2106233;28;20520;-66
2022/01/05 04:41:11;;;;;;;0.80;0.70;;;2.10;99.90;;;;;;2106156;28;20542;-67
2022/01/05 04:42:12;;;;;;;0.50;0.50;;;2.00;99.90;;;;;;2106175;28;20221;-65
2022/01/05 04:43:13;;;;;;;0.40;0.40;;;2.10;99.90;;;;;;2106313;28;20184;-66
2022/01/05 04:44:13;;;;;;;0.87;0.50;;;2.10;99.90;;;;;;2106298;28;20179;-65
2022/01/05 04:45:14;;;;;;;2.50;0.80;;;2.10;99.90;;;;;;2106093;28;20210;-66
2022/01/05 04:46:15;;;;;;;0.90;0.70;;;2.10;99.90;;;;;;2106300;28;20184;-67
2022/01/05 04:47:15;;;;;;;0.93;0.60;;;2.10;99.90;;;;;;2106134;28;20203;-67
2022/01/05 04:48:16;;;;;;;0.90;0.70;;;2.10;99.90;;;;;;2106158;28;20179;-66
2022/01/05 04:49:17;;;;;;;1.90;1.13;;;2.10;99.90;;;;;;2106334;28;20274;-67
2022/01/05 04:50:18;;;;;;;0.97;0.87;;;2.10;99.90;;;;;;2106191;28;20195;-66
2022/01/05 04:51:19;;;;;;;1.20;0.82;;;2.10;99.90;;;;;;2106168;28;20731;-65
2022/01/05 04:52:19;;;;;;;0.60;0.60;;;2.10;99.90;;;;;;2106189;28;20180;-66
2022/01/05 04:53:20;;;;;;;0.60;0.60;;;2.10;99.90;;;;;;2106256;28;20655;-66
2022/01/05 04:54:21;;;;;;;0.50;0.50;;;2.10;99.90;;;;;;2106276;28;20633;-66
2022/01/05 04:55:21;;;;;;;0.40;0.40;;;2.10;99.90;;;;;;2105969;28;20204;-66
2022/01/05 04:56:22;;;;;;;0.87;0.70;;;2.10;99.90;;;;;;2106248;28;20200;-67
2022/01/05 04:57:23;;;;;;;1.20;0.60;;;2.00;99.90;;;;;;2106052;28;20547;-65
2022/01/05 04:58:23;;;;;;;1.23;0.67;;;2.00;99.90;;;;;;2106164;28;20707;-67
2022/01/05 04:59:24;;;;;;;2.00;0.80;;;2.00;99.90;;;;;;2106268;28;20326;-67
2022/01/05 05:00:25;;;;;;;0.90;0.63;;;2.00;99.90;;;;;;2106142;28;20176;-67
2022/01/05 05:01:25;;;;;;;2.30;0.60;;;1.90;99.90;;;;;;2106211;28;20211;-66
2022/01/05 05:02:26;;;;;;;0.60;0.60;;;1.90;99.90;;;;;;2106263;28;20547;-67
2022/01/05 05:03:27;;;;;;;0.50;0.50;;;1.90;99.90;;;;;;2106108;28;20366;-67
2022/01/05 05:04:27;;;;;;;1.27;0.60;;;1.90;99.90;;;;;;2106159;28;20177;-67
2022/01/05 05:05:28;;;;;;;0.43;0.43;;;1.90;99.90;;;;;;2106199;28;20181;-67
2022/01/05 05:06:29;;;;;;;0.70;0.70;;;1.80;99.90;;;;;;2106218;28;20186;-67
2022/01/05 05:07:29;;;;;;;1.30;0.50;;;1.80;99.90;;;;;;2106193;28;20210;-67
2022/01/05 05:08:30;;;;;;;1.40;0.30;;;1.70;99.90;;;;;;2106042;28;20762;-67
2022/01/05 05:09:31;;;;;;;0.40;0.40;;;1.70;99.90;;;;;;2106179;28;20210;-67
2022/01/05 05:10:32;;;;;;;0.30;0.30;;;1.60;99.90;;;;;;2106145;28;20238;-67
2022/01/05 05:11:33;;;;;;;1.30;0.30;;;1.60;99.90;;;;;;2105548;28;20227;-67
2022/01/05 05:12:34;;;;;;;0.30;0.30;;;1.60;99.90;;;;;;2105510;28;20187;-66
2022/01/05 05:13:34;;;;;;;0.87;0.40;;;1.60;99.90;;;;;;2106131;28;20176;-67
2022/01/05 05:14:36;;;;;;;0.20;0.20;;;1.60;99.90;;;;;;2105791;28;20670;-66
2022/01/05 05:15:39;;;;;;;1.45;0.30;;;1.50;99.90;;;;;;2106014;28;20220;-67
2022/01/05 05:16:39;;;;;;;0.43;0.20;;;1.50;99.90;;;;;;2105313;28;20222;-67
2022/01/05 05:17:40;;;;;;;0.60;0.37;;;1.40;99.90;;;;;;2105311;28;20192;-67
2022/01/05 05:18:41;;;;;;;2.77;0.40;;;1.40;99.90;;;;;;2105986;28;20186;-67
2022/01/05 05:19:41;;;;;;;0.40;0.40;;;1.40;99.90;;;;;;2105945;28;20179;-66
2022/01/05 05:20:42;;;;;;;0.53;0.53;;;1.40;99.90;;;;;;2105940;28;20179;-67
2022/01/05 05:21:43;;;;;;;0.47;0.47;;;1.40;99.90;;;;;;2105926;28;20196;-66
2022/01/05 05:22:43;;;;;;;1.43;0.70;;;1.40;99.90;;;;;;2105987;28;20233;-65
2022/01/05 05:23:44;;;;;;;0.60;0.60;;;1.40;99.90;;;;;;2105376;28;20172;-66